createdAt,value
2022-09-06T00:00:59.976Z,3.17
2022-09-06T00:03:29.863Z,3.00
2022-09-06T00:05:56.746Z,3.28
2022-09-06T00:08:23.791Z,2.95
2022-09-06T00:11:01.063Z,2.92
2022-09-06T00:13:28.416Z,3.28
2022-09-06T00:15:55.373Z,3.03
2022-09-06T00:18:22.422Z,3.25
2022-09-06T00:20:49.388Z,3.20
2022-09-06T00:23:16.273Z,2.95
2022-09-06T00:25:43.200Z,2.72
2022-09-06T00:28:10.061Z,3.22
2022-09-06T00:30:36.949Z,3.28
2022-09-06T00:33:04.039Z,3.50
2022-09-06T00:35:30.955Z,2.90
2022-09-06T00:37:59.010Z,3.00
2022-09-06T00:40:26.609Z,3.38
2022-09-06T00:42:53.528Z,2.88
2022-09-06T00:45:20.449Z,3.13
2022-09-06T00:47:47.436Z,3.40
2022-09-06T00:50:15.255Z,3.10
2022-09-06T00:52:42.417Z,3.10
2022-09-06T00:55:09.530Z,3.15
2022-09-06T00:57:36.433Z,3.15
2022-09-06T01:00:04.927Z,3.42
2022-09-06T01:02:31.893Z,3.60
2022-09-06T01:04:58.884Z,3.30
2022-09-06T01:07:37.716Z,3.42
2022-09-06T01:10:30.616Z,3.70
2022-09-06T01:13:00.203Z,3.10
2022-09-06T01:16:11.518Z,3.13
2022-09-06T01:18:56.843Z,3.28
2022-09-06T01:21:58.157Z,3.25
2022-09-06T01:24:36.966Z,3.28
2022-09-06T01:27:34.771Z,3.40
2022-09-06T01:30:06.667Z,3.40
2022-09-06T01:32:51.942Z,3.30
2022-09-06T01:35:48.080Z,3.42
2022-09-06T01:38:15.035Z,3.20
2022-09-06T01:40:41.914Z,3.58
2022-09-06T01:43:11.259Z,3.20
2022-09-06T01:45:44.036Z,3.30
2022-09-06T01:48:48.481Z,3.15
2022-09-06T01:51:21.771Z,3.40
2022-09-06T01:53:55.881Z,3.55
2022-09-06T01:56:28.645Z,3.38
2022-09-06T01:59:13.183Z,3.25
2022-09-06T02:02:01.751Z,3.40
2022-09-06T02:04:49.465Z,3.53
2022-09-06T02:07:25.619Z,3.40
2022-09-06T02:10:00.501Z,3.53
2022-09-06T02:12:27.951Z,3.80
2022-09-06T02:15:07.717Z,3.35
2022-09-06T02:17:35.745Z,3.70
2022-09-06T02:20:07.267Z,3.53
2022-09-06T02:22:37.716Z,3.40
2022-09-06T02:25:05.371Z,3.63
2022-09-06T02:27:32.268Z,3.42
2022-09-06T02:29:59.154Z,3.70
2022-09-06T02:32:26.397Z,3.10
2022-09-06T02:34:54.620Z,3.35
2022-09-06T02:37:21.473Z,3.50
2022-09-06T02:39:48.398Z,3.40
2022-09-06T02:42:15.667Z,3.42
2022-09-06T02:44:42.520Z,3.40
2022-09-06T02:47:09.419Z,3.63
2022-09-06T02:49:36.364Z,3.15
2022-09-06T02:52:03.420Z,3.47
2022-09-06T02:54:31.273Z,3.60
2022-09-06T02:56:58.203Z,3.33
2022-09-06T02:59:25.073Z,4.05
2022-09-06T03:01:51.926Z,3.60
2022-09-06T03:04:18.869Z,3.88
2022-09-06T03:06:45.754Z,3.38
2022-09-06T03:09:12.629Z,3.22
2022-09-06T03:11:39.551Z,3.80
2022-09-06T03:14:06.514Z,3.35
2022-09-06T03:16:33.514Z,3.45
2022-09-06T03:19:00.454Z,3.60
2022-09-06T03:21:27.338Z,3.45
2022-09-06T03:23:54.804Z,3.50
2022-09-06T03:26:21.799Z,3.40
2022-09-06T03:28:49.701Z,3.38
2022-09-06T03:31:16.625Z,3.80
2022-09-06T03:33:43.572Z,3.28
2022-09-06T03:36:10.486Z,3.75
2022-09-06T03:38:37.376Z,3.83
2022-09-06T03:41:04.568Z,3.92
2022-09-06T03:43:32.392Z,3.40
2022-09-06T03:46:00.033Z,3.67
2022-09-06T03:48:28.825Z,3.55
2022-09-06T03:50:56.670Z,3.72
2022-09-06T03:53:24.223Z,3.30
2022-09-06T03:55:52.517Z,6.25
2022-09-06T03:58:20.521Z,5.78
2022-09-06T04:00:47.674Z,5.10
2022-09-06T04:03:14.936Z,5.57
2022-09-06T04:05:46.331Z,5.05
2022-09-06T04:08:13.832Z,5.05
2022-09-06T04:10:42.271Z,5.47
2022-09-06T04:13:09.258Z,4.65
2022-09-06T04:15:37.172Z,5.25
2022-09-06T04:18:08.978Z,5.13
2022-09-06T04:20:36.530Z,4.15
2022-09-06T04:23:04.099Z,5.10
2022-09-06T04:25:31.109Z,4.25
2022-09-06T04:27:58.227Z,4.88
2022-09-06T04:30:25.309Z,6.20
2022-09-06T04:32:52.526Z,6.47
2022-09-06T04:35:19.492Z,5.45
2022-09-06T04:37:46.507Z,5.25
2022-09-06T04:40:13.675Z,5.05
2022-09-06T04:42:40.739Z,4.95
2022-09-06T04:45:08.264Z,4.93
2022-09-06T04:47:35.563Z,4.75
2022-09-06T04:50:02.507Z,5.53
2022-09-06T04:52:30.318Z,4.30
2022-09-06T04:54:57.688Z,4.38
2022-09-06T04:57:24.882Z,7.70
2022-09-06T04:59:51.855Z,7.63
2022-09-06T05:02:18.929Z,7.22
2022-09-06T05:04:46.057Z,7.10
2022-09-06T05:07:12.998Z,7.13
2022-09-06T05:09:40.116Z,7.32
2022-09-06T05:12:08.022Z,6.32
2022-09-06T05:14:35.059Z,6.93
2022-09-06T05:17:02.353Z,7.13
2022-09-06T05:19:29.281Z,6.00
2022-09-06T05:21:56.509Z,5.85
2022-09-06T05:24:23.614Z,5.53
2022-09-06T05:26:50.739Z,5.55
2022-09-06T05:29:17.679Z,5.60
2022-09-06T05:31:45.018Z,5.45
2022-09-06T05:34:13.593Z,5.13
2022-09-06T05:36:42.128Z,5.20
2022-09-06T05:39:09.348Z,5.68
2022-09-06T05:41:36.308Z,5.38
2022-09-06T05:44:03.849Z,4.88
2022-09-06T05:46:31.036Z,5.47
2022-09-06T05:49:07.986Z,5.05
2022-09-06T05:51:35.062Z,4.70
2022-09-06T05:54:02.106Z,4.28
2022-09-06T05:56:29.337Z,4.80
2022-09-06T05:58:56.439Z,4.57
2022-09-06T06:01:29.216Z,4.50
2022-09-06T06:04:00.846Z,5.63
2022-09-06T06:06:29.607Z,4.97
2022-09-06T06:08:56.926Z,4.95
2022-09-06T06:11:24.388Z,4.90
2022-09-06T06:13:51.921Z,4.50
2022-09-06T06:16:20.594Z,4.95
2022-09-06T06:18:52.004Z,4.70
2022-09-06T06:21:22.737Z,4.68
2022-09-06T06:23:51.360Z,4.65
2022-09-06T06:26:18.493Z,4.65
2022-09-06T06:28:45.708Z,4.47
2022-09-06T06:31:13.135Z,4.82
2022-09-06T06:33:40.383Z,4.40
2022-09-06T06:36:08.194Z,4.57
2022-09-06T06:38:37.625Z,4.20
2022-09-06T06:41:06.983Z,4.43
2022-09-06T06:43:37.952Z,4.57
2022-09-06T06:46:15.469Z,4.63
2022-09-06T06:48:43.765Z,4.20
2022-09-06T06:51:20.020Z,4.32
2022-09-06T06:53:47.656Z,4.22
2022-09-06T06:56:21.531Z,4.15
2022-09-06T06:58:49.938Z,4.28
2022-09-06T07:01:17.543Z,4.28
2022-09-06T07:03:44.734Z,3.90
2022-09-06T07:06:12.498Z,4.43
2022-09-06T07:08:40.468Z,5.25
2022-09-06T07:11:07.949Z,4.22
2022-09-06T07:13:35.117Z,4.50
2022-09-06T07:16:08.847Z,4.13
2022-09-06T07:18:36.439Z,4.47
2022-09-06T07:24:06.967Z,6.50
2022-09-06T07:26:34.975Z,9.37
2022-09-06T07:29:03.488Z,5.75
2022-09-06T07:34:20.699Z,9.13
2022-09-06T07:36:48.462Z,7.10
2022-09-06T07:39:15.589Z,6.05
2022-09-06T07:41:43.087Z,7.43
2022-09-06T07:44:10.380Z,13.10
2022-09-06T07:46:37.470Z,8.40
2022-09-06T07:49:05.469Z,6.43
2022-09-06T07:51:32.607Z,6.72
2022-09-06T07:54:26.436Z,6.70
2022-09-06T07:56:46.876Z,7.05
2022-09-06T07:59:13.875Z,6.45
2022-09-06T08:01:40.960Z,6.38
2022-09-06T08:04:12.941Z,6.47
2022-09-06T08:09:35.474Z,7.40
2022-09-06T08:12:08.656Z,7.07
2022-09-06T08:14:35.729Z,7.32
2022-09-06T08:17:02.835Z,6.05
2022-09-06T08:19:29.785Z,6.35
2022-09-06T08:21:56.902Z,7.55
2022-09-06T08:24:23.853Z,7.22
2022-09-06T08:26:50.917Z,8.05
2022-09-06T08:29:18.983Z,7.18
2022-09-06T08:31:46.148Z,7.22
2022-09-06T08:34:14.328Z,6.07
2022-09-06T08:36:41.606Z,6.10
2022-09-06T08:39:11.679Z,6.25
2022-09-06T08:41:47.786Z,6.45
2022-09-06T08:47:07.156Z,5.63
2022-09-06T08:49:37.039Z,6.70
2022-09-06T08:52:24.145Z,5.80
2022-09-06T08:55:09.828Z,6.22
2022-09-06T08:58:10.413Z,5.38
2022-09-06T09:00:37.458Z,5.22
2022-09-06T09:03:07.194Z,5.30
2022-09-06T09:05:35.036Z,5.47
2022-09-06T09:08:17.904Z,5.40
2022-09-06T09:10:48.715Z,5.10
2022-09-06T09:13:40.752Z,5.90
2022-09-06T09:16:07.849Z,5.95
2022-09-06T09:18:40.390Z,5.97
2022-09-06T09:21:07.364Z,5.03
2022-09-06T09:23:34.461Z,5.45
2022-09-06T09:26:12.430Z,5.15
2022-09-06T09:28:39.363Z,5.07
2022-09-06T09:31:07.349Z,4.97
2022-09-06T09:33:36.908Z,4.88
2022-09-06T09:36:13.266Z,4.97
2022-09-06T09:38:44.614Z,5.28
2022-09-06T09:41:24.227Z,4.88
2022-09-06T09:44:03.698Z,5.47
2022-09-06T09:46:33.341Z,8.15
2022-09-06T09:49:04.535Z,8.13
2022-09-06T09:51:33.154Z,9.25
2022-09-06T09:54:10.756Z,8.25
2022-09-06T09:56:49.827Z,7.95
2022-09-06T09:59:22.662Z,7.25
2022-09-06T10:01:49.866Z,7.55
2022-09-06T10:04:47.212Z,7.55
2022-09-06T10:07:21.531Z,8.60
2022-09-06T10:12:31.711Z,8.45
2022-09-06T10:15:01.251Z,7.60
2022-09-06T10:17:34.622Z,8.90
2022-09-06T10:20:11.698Z,6.95
2022-09-06T10:22:44.103Z,6.72
2022-09-06T10:25:29.710Z,7.10
2022-09-06T10:28:33.123Z,6.30
2022-09-06T10:31:12.392Z,6.68
2022-09-06T10:34:16.882Z,6.57
2022-09-06T10:37:01.706Z,5.63
2022-09-06T10:39:50.379Z,6.30
2022-09-06T10:42:39.202Z,5.80
2022-09-06T10:45:21.918Z,6.47
2022-09-06T10:48:02.974Z,5.80
2022-09-06T10:50:44.100Z,4.90
2022-09-06T10:53:14.217Z,5.63
2022-09-06T10:55:41.244Z,5.05
2022-09-06T10:58:18.273Z,4.85
2022-09-06T11:00:47.495Z,5.57
2022-09-06T11:06:10.396Z,7.75
2022-09-06T11:09:02.857Z,18.75
2022-09-06T11:11:51.359Z,8.27
2022-09-06T11:14:18.325Z,7.30
2022-09-06T11:17:28.575Z,7.25
2022-09-06T11:20:06.951Z,8.13
2022-09-06T11:22:59.532Z,7.28
2022-09-06T11:26:14.654Z,10.48
2022-09-06T11:29:04.855Z,15.33
2022-09-06T11:34:31.441Z,15.25
2022-09-06T11:37:02.686Z,13.70
2022-09-06T11:42:45.596Z,14.13
2022-09-06T11:45:16.135Z,11.23
2022-09-06T11:47:48.243Z,7.07
2022-09-06T11:50:21.395Z,8.63
2022-09-06T11:53:07.365Z,13.77
2022-09-06T11:55:38.211Z,6.30
2022-09-06T11:58:12.279Z,7.40
2022-09-06T12:00:39.249Z,7.85
2022-09-06T12:06:19.217Z,8.90
2022-09-06T12:08:50.236Z,7.10
2022-09-06T12:11:30.295Z,6.72
2022-09-06T12:14:03.857Z,6.10
2022-09-06T12:16:55.712Z,14.23
2022-09-06T12:19:47.255Z,16.75
2022-09-06T12:22:29.541Z,35.90
2022-09-06T12:25:21.032Z,11.88
2022-09-06T12:27:56.146Z,10.27
2022-09-06T12:30:43.823Z,11.35
2022-09-06T12:33:39.428Z,18.13
2022-09-06T12:36:19.959Z,13.10
2022-09-06T12:39:09.957Z,13.40
2022-09-06T12:41:43.296Z,10.65
2022-09-06T12:44:11.092Z,9.45
2022-09-06T12:46:40.055Z,12.90
2022-09-06T12:49:08.879Z,8.93
2022-09-06T12:51:36.756Z,4.28
2022-09-06T12:54:22.235Z,7.32
2022-09-06T12:56:49.589Z,11.10
2022-09-06T12:59:20.493Z,9.45
2022-09-06T13:02:08.384Z,12.13
2022-09-06T13:04:49.602Z,9.05
2022-09-06T13:07:17.867Z,7.40
2022-09-06T13:09:47.266Z,9.00
2022-09-06T13:12:27.483Z,8.57
2022-09-06T13:14:58.217Z,6.68
2022-09-06T13:17:26.475Z,7.57
2022-09-06T13:19:53.682Z,6.40
2022-09-06T13:22:45.962Z,5.75
2022-09-06T13:25:21.006Z,6.53
2022-09-06T13:27:56.581Z,5.70
2022-09-06T13:30:37.068Z,8.10
2022-09-06T13:33:05.328Z,8.13
2022-09-06T13:35:34.573Z,6.63
2022-09-06T13:38:32.429Z,6.43
2022-09-06T13:41:12.521Z,6.75
2022-09-06T13:43:48.795Z,6.43
2022-09-06T13:46:16.164Z,6.55
2022-09-06T13:48:44.776Z,5.82
2022-09-06T13:51:12.092Z,5.22
2022-09-06T13:53:39.026Z,4.80
2022-09-06T13:56:08.584Z,5.70
2022-09-06T13:58:36.387Z,5.47
2022-09-06T14:01:04.183Z,5.53
2022-09-06T14:03:31.762Z,4.80
2022-09-06T14:06:00.371Z,4.82
2022-09-06T14:08:49.287Z,4.97
2022-09-06T14:11:17.948Z,4.90
2022-09-06T14:13:44.921Z,4.57
2022-09-06T14:16:12.030Z,4.57
2022-09-06T14:18:39.131Z,5.50
2022-09-06T14:21:07.262Z,4.80
2022-09-06T14:23:34.189Z,4.93
2022-09-06T14:26:02.419Z,4.45
2022-09-06T14:28:31.163Z,4.35
2022-09-06T14:30:58.172Z,5.35
2022-09-06T14:33:25.191Z,5.03
2022-09-06T14:35:52.398Z,4.70
2022-09-06T14:38:19.687Z,5.10
2022-09-06T14:40:46.596Z,5.82
2022-09-06T14:43:13.610Z,4.70
2022-09-06T14:45:40.540Z,4.95
2022-09-06T14:48:07.699Z,4.93
2022-09-06T14:50:34.589Z,13.43
2022-09-06T14:53:02.071Z,5.80
2022-09-06T14:55:30.265Z,5.30
2022-09-06T14:57:57.950Z,5.15
2022-09-06T15:00:25.239Z,5.53
2022-09-06T15:02:52.538Z,5.05
2022-09-06T15:05:19.434Z,5.18
2022-09-06T15:07:46.696Z,4.72
2022-09-06T15:10:13.669Z,5.15
2022-09-06T15:12:40.528Z,5.00
2022-09-06T15:15:07.660Z,5.18
2022-09-06T15:17:35.218Z,4.93
2022-09-06T15:20:02.322Z,5.30
2022-09-06T15:22:29.898Z,4.40
2022-09-06T15:24:56.859Z,4.47
2022-09-06T15:27:23.806Z,4.50
2022-09-06T15:29:50.871Z,4.30
2022-09-06T15:32:17.904Z,4.95
2022-09-06T15:34:44.862Z,4.97
2022-09-06T15:37:11.737Z,4.63
2022-09-06T15:39:38.725Z,4.85
2022-09-06T15:42:06.046Z,4.63
2022-09-06T15:44:33.294Z,4.05
2022-09-06T15:47:00.357Z,3.92
2022-09-06T15:49:28.873Z,4.22
2022-09-06T15:51:57.043Z,3.97
2022-09-06T15:54:42.596Z,4.07
2022-09-06T15:57:09.545Z,3.97
2022-09-06T15:59:36.593Z,3.88
2022-09-06T16:02:03.638Z,3.67
2022-09-06T16:04:30.538Z,3.97
2022-09-06T16:06:57.482Z,3.92
2022-09-06T16:09:24.430Z,3.72
2022-09-06T16:11:51.305Z,3.67
2022-09-06T16:14:18.363Z,3.60
2022-09-06T16:16:45.667Z,3.70
2022-09-06T16:19:12.761Z,3.75
2022-09-06T16:21:40.680Z,3.08
2022-09-06T16:24:09.226Z,3.60
2022-09-06T16:26:38.418Z,3.40
2022-09-06T16:29:05.925Z,3.90
2022-09-06T16:31:40.059Z,3.88
2022-09-06T16:34:10.549Z,3.67
2022-09-06T16:36:37.518Z,3.50
2022-09-06T16:39:04.937Z,3.92
2022-09-06T16:41:39.578Z,3.60
2022-09-06T16:44:07.663Z,3.45
2022-09-06T16:46:34.792Z,3.97
2022-09-06T16:49:02.969Z,3.90
2022-09-06T16:51:31.160Z,3.60
2022-09-06T16:53:58.265Z,3.80
2022-09-06T16:56:26.735Z,4.05
2022-09-06T16:58:55.075Z,3.72
2022-09-06T17:01:22.441Z,4.05
2022-09-06T17:03:49.795Z,4.22
2022-09-06T17:06:16.907Z,4.10
2022-09-06T17:08:44.002Z,3.90
2022-09-06T17:11:14.791Z,3.97
2022-09-06T17:13:41.949Z,3.33
2022-09-06T17:16:27.525Z,3.67
2022-09-06T17:18:54.565Z,3.53
2022-09-06T17:21:22.040Z,3.70
2022-09-06T17:23:49.604Z,3.30
2022-09-06T17:26:17.543Z,3.55
2022-09-06T17:28:44.464Z,3.75
2022-09-06T17:31:12.110Z,3.30
2022-09-06T17:33:39.135Z,3.30
2022-09-06T17:36:13.588Z,2.92
2022-09-06T17:38:41.126Z,3.35
2022-09-06T17:41:08.150Z,3.20
2022-09-06T17:43:38.233Z,3.47
2022-09-06T17:46:05.369Z,2.95
2022-09-06T17:48:32.331Z,3.33
2022-09-06T17:51:06.938Z,3.15
2022-09-06T17:53:34.513Z,3.10
2022-09-06T17:56:09.119Z,2.95
2022-09-06T17:58:36.724Z,3.30
2022-09-06T18:01:08.072Z,2.83
2022-09-06T18:03:35.095Z,2.92
2022-09-06T18:06:03.638Z,3.30
2022-09-06T18:08:30.954Z,2.83
2022-09-06T18:10:57.913Z,2.90
2022-09-06T18:13:24.795Z,2.83
2022-09-06T18:15:51.701Z,3.08
2022-09-06T18:18:18.629Z,3.17
2022-09-06T18:20:45.515Z,2.80
2022-09-06T18:23:12.434Z,2.75
2022-09-06T18:25:39.337Z,2.90
2022-09-06T18:28:06.518Z,2.72
2022-09-06T18:30:33.515Z,2.75
2022-09-06T18:33:00.452Z,2.75
2022-09-06T18:35:27.483Z,2.50
2022-09-06T18:37:54.678Z,2.70
2022-09-06T18:40:21.592Z,3.00
2022-09-06T18:42:48.644Z,2.78
2022-09-06T18:45:15.534Z,3.35
2022-09-06T18:47:43.686Z,2.70
2022-09-06T18:50:10.637Z,2.55
2022-09-06T18:52:38.466Z,2.50
2022-09-06T18:55:05.966Z,2.92
2022-09-06T18:57:32.999Z,2.67
2022-09-06T18:59:59.926Z,2.67
2022-09-06T19:02:27.953Z,2.80
2022-09-06T19:04:56.083Z,2.75
2022-09-06T19:07:23.111Z,2.88
2022-09-06T19:09:50.133Z,2.80
2022-09-06T19:12:17.070Z,2.72
2022-09-06T19:14:44.050Z,2.60
2022-09-06T19:17:11.048Z,2.85
2022-09-06T19:19:38.192Z,2.60
2022-09-06T19:22:05.763Z,2.55
2022-09-06T19:24:33.682Z,2.63
2022-09-06T19:27:02.011Z,2.70
2022-09-06T19:29:30.406Z,2.80
2022-09-06T19:31:59.317Z,2.60
2022-09-06T19:34:26.951Z,2.42
2022-09-06T19:36:55.514Z,2.45
2022-09-06T19:39:22.845Z,2.78
2022-09-06T19:41:50.643Z,3.00
2022-09-06T19:44:17.680Z,2.50
2022-09-06T19:46:46.981Z,2.80
2022-09-06T19:49:19.162Z,2.40
2022-09-06T19:51:48.216Z,2.85
2022-09-06T19:54:15.581Z,2.50
2022-09-06T19:56:43.658Z,2.70
2022-09-06T19:59:12.197Z,2.40
2022-09-06T20:01:39.938Z,2.35
2022-09-06T20:04:07.934Z,2.80
2022-09-06T20:06:35.198Z,2.38
2022-09-06T20:09:02.682Z,2.85
2022-09-06T20:11:30.625Z,2.80
2022-09-06T20:13:57.615Z,2.42
2022-09-06T20:16:24.914Z,2.80
2022-09-06T20:18:52.527Z,2.47
2022-09-06T20:21:19.606Z,2.50
2022-09-06T20:23:50.218Z,2.47
2022-09-06T20:26:17.515Z,2.75
2022-09-06T20:28:44.584Z,2.20
2022-09-06T20:31:16.478Z,2.60
2022-09-06T20:33:48.716Z,2.50
2022-09-06T20:36:16.906Z,2.60
2022-09-06T20:38:44.229Z,2.38
2022-09-06T20:41:16.039Z,2.38
2022-09-06T20:43:43.264Z,2.35
2022-09-06T20:46:17.168Z,2.30
2022-09-06T20:48:45.474Z,2.25
2022-09-06T20:51:14.894Z,2.53
2022-09-06T20:53:41.871Z,2.25
2022-09-06T20:56:33.909Z,2.40
2022-09-06T20:59:02.616Z,2.38
2022-09-06T21:01:35.847Z,2.63
2022-09-06T21:04:04.498Z,2.60
2022-09-06T21:06:33.795Z,2.30
2022-09-06T21:09:00.866Z,2.60
2022-09-06T21:11:27.930Z,2.40
2022-09-06T21:13:56.337Z,2.30
2022-09-06T21:16:25.501Z,2.75
2022-09-06T21:18:53.198Z,2.75
2022-09-06T21:21:20.156Z,2.40
2022-09-06T21:23:47.093Z,2.67
2022-09-06T21:26:15.930Z,2.40
2022-09-06T21:28:43.098Z,2.50
2022-09-06T21:31:11.919Z,2.75
2022-09-06T21:33:40.660Z,2.22
2022-09-06T21:36:12.056Z,2.33
2022-09-06T21:38:40.957Z,2.55
2022-09-06T21:41:08.374Z,2.58
2022-09-06T21:43:35.346Z,2.67
2022-09-06T21:46:03.147Z,2.60
2022-09-06T21:48:30.212Z,2.30
2022-09-06T21:50:57.467Z,2.88
2022-09-06T21:53:26.579Z,2.65
2022-09-06T21:55:53.423Z,2.60
2022-09-06T21:58:20.455Z,2.58
2022-09-06T22:00:51.978Z,2.58
2022-09-06T22:03:19.106Z,2.50
2022-09-06T22:05:46.220Z,2.50
2022-09-06T22:08:13.363Z,3.00
2022-09-06T22:10:40.278Z,2.40
2022-09-06T22:13:07.184Z,2.65
2022-09-06T22:15:37.978Z,2.90
2022-09-06T22:18:05.251Z,2.60
2022-09-06T22:20:32.181Z,2.78
2022-09-06T22:22:59.150Z,2.58
2022-09-06T22:25:26.015Z,2.50
2022-09-06T22:27:52.994Z,2.42
2022-09-06T22:30:25.066Z,2.60
2022-09-06T22:32:53.107Z,2.70
2022-09-06T22:35:20.334Z,2.80
2022-09-06T22:37:47.212Z,2.65
2022-09-06T22:40:14.201Z,2.65
2022-09-06T22:42:41.171Z,2.78
2022-09-06T22:45:08.454Z,2.60
2022-09-06T22:47:35.454Z,2.75
2022-09-06T22:50:02.388Z,2.90
2022-09-06T22:52:29.262Z,2.80
2022-09-06T22:54:56.167Z,2.60
2022-09-06T22:57:23.043Z,2.75
2022-09-06T22:59:49.889Z,2.60
2022-09-06T23:02:16.783Z,2.83
2022-09-06T23:04:43.699Z,2.97
2022-09-06T23:07:10.611Z,3.03
2022-09-06T23:09:37.536Z,2.80
2022-09-06T23:12:05.143Z,2.92
2022-09-06T23:14:32.014Z,2.72
2022-09-06T23:16:58.999Z,2.65
2022-09-06T23:19:25.918Z,2.80
2022-09-06T23:21:52.776Z,2.80
2022-09-06T23:24:19.748Z,2.50
2022-09-06T23:26:46.968Z,2.60
2022-09-06T23:29:14.291Z,3.00
2022-09-06T23:31:42.499Z,2.85
2022-09-06T23:34:09.476Z,2.80
2022-09-06T23:36:36.441Z,2.78
2022-09-06T23:39:03.396Z,2.72
2022-09-06T23:41:30.327Z,2.80
2022-09-06T23:43:57.498Z,2.90
2022-09-06T23:46:24.473Z,2.60
2022-09-06T23:48:51.400Z,2.75
2022-09-06T23:51:18.358Z,2.45
2022-09-06T23:53:45.393Z,2.75
2022-09-06T23:56:12.387Z,2.90
2022-09-06T23:58:39.372Z,2.85
